createdAt,value
2019-05-07T00:00:35.466Z,6.45
2019-05-07T00:03:03.971Z,6.49
2019-05-07T00:05:33.149Z,6.36
2019-05-07T00:08:02.989Z,6.23
2019-05-07T00:10:33.101Z,6.22
2019-05-07T00:13:02.363Z,6.25
2019-05-07T00:15:32.814Z,6.21
2019-05-07T00:18:03.200Z,6.17
2019-05-07T00:20:32.706Z,6.33
2019-05-07T00:23:02.930Z,6.25
2019-05-07T00:25:32.857Z,6.40
2019-05-07T00:28:02.955Z,6.34
2019-05-07T00:30:33.237Z,6.23
2019-05-07T00:33:02.898Z,6.12
2019-05-07T00:35:35.736Z,6.10
2019-05-07T00:38:14.576Z,6.11
2019-05-07T00:40:44.632Z,6.07
2019-05-07T00:43:14.746Z,5.91
2019-05-07T00:45:56.676Z,5.87
2019-05-07T00:48:23.918Z,5.77
2019-05-07T00:50:54.007Z,5.71
2019-05-07T00:53:23.649Z,5.80
2019-05-07T00:55:52.605Z,5.68
2019-05-07T00:58:25.989Z,5.80
2019-05-07T01:00:53.127Z,5.68
2019-05-07T01:03:22.208Z,5.59
2019-05-07T01:05:52.740Z,5.52
2019-05-07T01:08:22.546Z,5.45
2019-05-07T01:10:52.868Z,5.37
2019-05-07T01:13:23.491Z,5.35
2019-05-07T01:15:53.225Z,5.34
2019-05-07T01:18:23.283Z,5.32
2019-05-07T01:20:53.288Z,5.30
2019-05-07T01:23:22.856Z,5.26
2019-05-07T01:25:52.628Z,5.28
2019-05-07T01:28:22.316Z,5.28
2019-05-07T01:30:52.745Z,5.21
2019-05-07T01:33:25.468Z,5.18
2019-05-07T01:35:58.231Z,5.14
2019-05-07T01:38:26.759Z,5.03
2019-05-07T01:40:55.172Z,5.07
2019-05-07T01:43:23.612Z,5.01
2019-05-07T01:45:53.035Z,5.03
2019-05-07T01:48:23.027Z,4.92
2019-05-07T01:50:52.537Z,4.86
2019-05-07T01:53:22.761Z,4.79
2019-05-07T01:55:52.392Z,4.77
2019-05-07T01:58:22.127Z,4.82
2019-05-07T02:00:53.041Z,4.81
2019-05-07T02:03:34.772Z,4.84
2019-05-07T02:06:13.487Z,4.89
2019-05-07T02:08:43.581Z,4.85
2019-05-07T02:11:13.677Z,4.84
2019-05-07T02:13:42.131Z,4.84
2019-05-07T02:16:12.432Z,4.81
2019-05-07T02:18:42.420Z,4.81
2019-05-07T02:21:12.888Z,4.83
2019-05-07T02:23:42.578Z,4.85
2019-05-07T02:26:13.364Z,4.76
2019-05-07T02:28:42.695Z,4.72
2019-05-07T02:31:15.113Z,4.61
2019-05-07T02:33:43.835Z,4.67
2019-05-07T02:36:14.188Z,4.69
2019-05-07T02:38:44.444Z,4.58
2019-05-07T02:41:14.612Z,4.47
2019-05-07T02:43:43.124Z,4.57
2019-05-07T02:46:26.374Z,4.58
2019-05-07T02:48:46.557Z,4.53
2019-05-07T02:51:19.337Z,4.45
2019-05-07T02:54:05.530Z,4.48
2019-05-07T02:56:33.967Z,4.44
2019-05-07T02:59:04.060Z,4.44
2019-05-07T03:01:33.480Z,4.39
2019-05-07T03:04:03.642Z,4.38
2019-05-07T03:06:33.922Z,4.38
2019-05-07T03:09:03.295Z,4.35
2019-05-07T03:11:34.036Z,4.37
2019-05-07T03:14:03.150Z,4.30
2019-05-07T03:16:39.678Z,4.29
2019-05-07T03:19:04.019Z,4.31
2019-05-07T03:21:53.424Z,4.27
2019-05-07T03:24:23.077Z,4.28
2019-05-07T03:26:53.545Z,4.29
2019-05-07T03:29:24.146Z,4.26
2019-05-07T03:31:56.423Z,4.22
2019-05-07T03:34:38.268Z,4.34
2019-05-07T03:37:08.341Z,4.38
2019-05-07T03:39:36.755Z,4.47
2019-05-07T03:42:05.250Z,4.48
2019-05-07T03:44:38.048Z,4.48
2019-05-07T03:47:17.869Z,4.58
2019-05-07T03:49:46.314Z,4.60
2019-05-07T03:52:16.421Z,4.53
2019-05-07T03:54:44.844Z,4.56
2019-05-07T03:57:15.776Z,4.54
2019-05-07T03:59:43.557Z,4.46
2019-05-07T04:02:14.304Z,4.47
2019-05-07T04:04:43.226Z,4.33
2019-05-07T04:07:13.787Z,4.33
2019-05-07T04:09:43.756Z,4.37
2019-05-07T04:12:13.327Z,4.39
2019-05-07T04:14:43.292Z,4.42
2019-05-07T04:17:17.295Z,4.36
2019-05-07T04:19:44.133Z,4.36
2019-05-07T04:22:13.267Z,4.34
2019-05-07T04:24:46.062Z,4.41
2019-05-07T04:27:25.161Z,4.44
2019-05-07T04:29:53.617Z,4.54
2019-05-07T04:32:23.686Z,4.38
2019-05-07T04:34:59.212Z,4.41
2019-05-07T04:37:27.636Z,4.35
2019-05-07T04:39:56.066Z,4.38
2019-05-07T04:42:24.901Z,4.43
2019-05-07T04:44:54.109Z,4.43
2019-05-07T04:47:34.758Z,4.43
2019-05-07T04:49:53.601Z,4.48
2019-05-07T04:52:23.990Z,4.44
2019-05-07T04:54:52.912Z,4.44
2019-05-07T04:57:25.838Z,4.45
2019-05-07T05:00:03.304Z,4.54
2019-05-07T05:02:32.611Z,4.64
2019-05-07T05:05:03.276Z,4.68
2019-05-07T05:07:33.487Z,4.66
2019-05-07T05:10:02.760Z,4.79
2019-05-07T05:12:32.599Z,4.77
2019-05-07T05:15:02.160Z,4.87
2019-05-07T05:17:32.042Z,4.93
2019-05-07T05:20:03.569Z,4.98
2019-05-07T05:22:42.543Z,5.14
2019-05-07T05:25:12.885Z,5.06
2019-05-07T05:27:42.965Z,4.89
2019-05-07T05:30:30.173Z,5.00
2019-05-07T05:33:01.321Z,4.91
2019-05-07T05:35:28.808Z,5.02
2019-05-07T05:37:57.218Z,4.71
2019-05-07T05:40:25.674Z,4.78
2019-05-07T05:42:55.804Z,4.94
2019-05-07T05:45:36.626Z,4.96
2019-05-07T05:48:08.285Z,5.13
2019-05-07T05:50:53.831Z,5.19
2019-05-07T05:53:25.089Z,5.26
2019-05-07T05:55:54.385Z,5.33
2019-05-07T05:58:25.524Z,5.40
2019-05-07T06:00:55.628Z,5.38
2019-05-07T06:03:46.745Z,5.56
2019-05-07T06:06:32.729Z,5.75
2019-05-07T06:09:12.413Z,5.98
2019-05-07T06:11:57.463Z,6.48
2019-05-07T06:14:33.297Z,6.65
2019-05-07T06:17:13.073Z,6.61
2019-05-07T06:19:49.326Z,6.38
2019-05-07T06:22:19.418Z,6.42
2019-05-07T06:24:56.552Z,6.35
2019-05-07T06:27:24.985Z,6.36
2019-05-07T06:29:53.418Z,6.31
2019-05-07T06:32:22.886Z,5.99
2019-05-07T06:34:52.273Z,5.95
2019-05-07T06:37:22.944Z,5.90
2019-05-07T06:39:58.433Z,5.84
2019-05-07T06:42:28.577Z,6.09
2019-05-07T06:45:02.933Z,6.00
2019-05-07T06:47:31.971Z,5.89
2019-05-07T06:50:05.422Z,6.03
2019-05-07T06:52:35.380Z,5.91
2019-05-07T06:55:04.633Z,5.75
2019-05-07T06:57:35.124Z,5.97
2019-05-07T07:00:08.657Z,6.09
2019-05-07T07:02:41.993Z,6.26
2019-05-07T07:05:12.433Z,6.10
2019-05-07T07:07:45.176Z,6.26
2019-05-07T07:10:15.436Z,6.54
2019-05-07T07:12:43.983Z,6.67
2019-05-07T07:15:12.527Z,6.58
2019-05-07T07:17:43.377Z,6.68
2019-05-07T07:20:12.686Z,6.83
2019-05-07T07:22:42.574Z,6.97
2019-05-07T07:25:11.899Z,6.75
2019-05-07T07:27:42.718Z,7.03
2019-05-07T07:30:12.800Z,7.08
2019-05-07T07:32:42.538Z,7.01
2019-05-07T07:35:13.029Z,7.24
2019-05-07T07:37:42.991Z,7.70
2019-05-07T07:40:22.435Z,7.75
2019-05-07T07:42:52.035Z,8.21
2019-05-07T07:45:22.795Z,7.93
2019-05-07T07:47:52.927Z,8.48
2019-05-07T07:50:22.389Z,8.67
2019-05-07T07:52:52.976Z,8.69
2019-05-07T07:55:22.767Z,9.03
2019-05-07T07:57:52.852Z,8.98
2019-05-07T08:00:32.910Z,9.21
2019-05-07T08:03:03.147Z,8.96
2019-05-07T08:05:32.563Z,9.51
2019-05-07T08:08:02.285Z,8.79
2019-05-07T08:10:32.540Z,9.01
2019-05-07T08:13:01.926Z,8.73
2019-05-07T08:15:33.021Z,9.00
2019-05-07T08:18:02.772Z,8.69
2019-05-07T08:20:32.634Z,8.48
2019-05-07T08:23:02.877Z,8.83
2019-05-07T08:25:52.231Z,8.83
2019-05-07T08:28:23.122Z,8.83
2019-05-07T08:30:53.211Z,8.83
2019-05-07T08:33:26.279Z,8.63
2019-05-07T08:36:11.981Z,9.01
2019-05-07T08:38:52.731Z,9.53
2019-05-07T08:41:22.792Z,9.20
2019-05-07T08:44:07.339Z,9.14
2019-05-07T08:46:24.872Z,9.01
2019-05-07T08:48:53.305Z,9.20
2019-05-07T08:51:22.354Z,9.56
2019-05-07T08:54:06.220Z,9.21
2019-05-07T08:56:36.291Z,9.48
2019-05-07T08:59:08.093Z,9.59
2019-05-07T09:01:39.248Z,9.60
2019-05-07T09:04:07.725Z,9.38
2019-05-07T09:06:36.306Z,9.27
2019-05-07T09:09:13.462Z,9.11
2019-05-07T09:11:42.599Z,10.31
2019-05-07T09:14:12.969Z,10.07
2019-05-07T09:16:42.644Z,10.65
2019-05-07T09:19:12.895Z,11.60
2019-05-07T09:21:42.832Z,12.02
2019-05-07T09:24:12.364Z,11.38
2019-05-07T09:26:42.534Z,11.48
2019-05-07T09:29:15.013Z,11.05
2019-05-07T09:31:52.540Z,10.91
2019-05-07T09:34:25.170Z,10.67
2019-05-07T09:37:12.398Z,9.89
2019-05-07T09:39:43.365Z,9.75
2019-05-07T09:42:12.163Z,9.31
2019-05-07T09:44:42.484Z,9.52
2019-05-07T09:47:12.786Z,9.16
2019-05-07T09:49:41.943Z,9.21
2019-05-07T09:52:12.279Z,9.42
2019-05-07T09:54:42.690Z,9.38
2019-05-07T09:57:25.439Z,9.70
2019-05-07T09:59:42.618Z,10.11
2019-05-07T10:02:12.245Z,10.39
2019-05-07T10:04:41.810Z,11.05
2019-05-07T10:07:12.605Z,11.35
2019-05-07T10:09:42.577Z,12.20
2019-05-07T10:12:24.634Z,12.09
2019-05-07T10:14:53.134Z,11.54
2019-05-07T10:17:26.192Z,10.70
2019-05-07T10:19:54.625Z,10.39
2019-05-07T10:22:23.049Z,11.25
2019-05-07T10:24:52.213Z,11.57
2019-05-07T10:27:21.813Z,12.65
2019-05-07T10:29:50.372Z,12.94
2019-05-07T10:32:18.800Z,11.28
2019-05-07T10:34:47.619Z,10.92
2019-05-07T10:37:16.063Z,10.53
2019-05-07T10:39:44.576Z,10.32
2019-05-07T10:42:13.059Z,10.61
2019-05-07T10:44:48.791Z,10.63
2019-05-07T10:47:35.352Z,10.42
2019-05-07T10:50:17.215Z,10.44
2019-05-07T10:52:45.760Z,10.82
2019-05-07T10:55:14.548Z,11.00
2019-05-07T10:57:42.979Z,11.46
2019-05-07T11:00:14.302Z,10.91
2019-05-07T11:02:42.713Z,11.40
2019-05-07T11:05:12.977Z,11.42
2019-05-07T11:07:42.222Z,11.29
2019-05-07T11:10:12.512Z,10.77
2019-05-07T11:12:42.433Z,11.12
2019-05-07T11:15:12.658Z,10.72
2019-05-07T11:17:48.624Z,10.67
2019-05-07T11:20:18.594Z,10.62
2019-05-07T11:22:47.125Z,10.78
2019-05-07T11:25:15.666Z,11.27
2019-05-07T11:27:44.099Z,11.57
2019-05-07T11:30:13.860Z,11.65
2019-05-07T11:32:42.948Z,11.52
2019-05-07T11:35:14.532Z,11.64
2019-05-07T11:37:44.141Z,11.82
2019-05-07T11:40:13.123Z,12.33
2019-05-07T11:43:02.518Z,11.83
2019-05-07T11:45:32.781Z,12.34
2019-05-07T11:48:01.874Z,12.23
2019-05-07T11:51:00.576Z,11.93
2019-05-07T11:53:22.078Z,11.64
2019-05-07T11:55:52.294Z,11.48
2019-05-07T11:58:22.012Z,12.15
2019-05-07T12:00:55.073Z,12.86
2019-05-07T12:03:23.468Z,13.30
2019-05-07T12:05:52.709Z,14.25
2019-05-07T12:08:22.401Z,14.61
2019-05-07T12:10:51.835Z,14.55
2019-05-07T12:13:21.829Z,14.89
2019-05-07T12:15:52.077Z,14.11
2019-05-07T12:18:22.538Z,14.95
2019-05-07T12:20:53.849Z,15.47
2019-05-07T12:23:22.712Z,14.86
2019-05-07T12:25:52.933Z,15.01
2019-05-07T12:28:22.565Z,15.07
2019-05-07T12:30:58.816Z,14.73
2019-05-07T12:33:32.464Z,13.54
2019-05-07T12:36:01.998Z,14.17
2019-05-07T12:38:32.386Z,13.84
2019-05-07T12:41:02.497Z,13.92
2019-05-07T12:43:31.934Z,13.82
2019-05-07T12:46:02.728Z,13.48
2019-05-07T12:48:30.618Z,13.28
2019-05-07T12:50:59.055Z,13.29
2019-05-07T12:53:29.143Z,13.51
2019-05-07T12:56:02.162Z,13.98
2019-05-07T12:58:32.305Z,14.66
2019-05-07T13:01:05.442Z,15.52
2019-05-07T13:03:38.270Z,16.47
2019-05-07T13:06:06.720Z,15.92
2019-05-07T13:08:35.127Z,15.46
2019-05-07T13:11:03.614Z,17.65
2019-05-07T13:13:32.216Z,17.54
2019-05-07T13:16:02.706Z,17.34
2019-05-07T13:18:31.138Z,17.35
2019-05-07T13:20:59.584Z,16.45
2019-05-07T13:23:27.989Z,16.28
2019-05-07T13:25:56.436Z,16.77
2019-05-07T13:28:26.375Z,16.07
2019-05-07T13:30:54.819Z,15.28
2019-05-07T13:33:23.803Z,15.86
2019-05-07T13:35:52.631Z,14.37
2019-05-07T13:38:38.974Z,13.97
2019-05-07T13:41:25.493Z,14.29
2019-05-07T13:44:05.166Z,14.61
2019-05-07T13:46:35.494Z,14.47
2019-05-07T13:49:03.983Z,14.29
2019-05-07T13:51:33.902Z,14.24
2019-05-07T13:54:02.607Z,13.47
2019-05-07T13:56:32.668Z,13.75
2019-05-07T13:59:04.649Z,13.85
2019-05-07T14:01:39.160Z,13.65
2019-05-07T14:04:07.582Z,13.54
2019-05-07T14:06:38.733Z,13.54
2019-05-07T14:09:19.483Z,13.89
2019-05-07T14:11:47.968Z,13.90
2019-05-07T14:14:16.447Z,13.84
2019-05-07T14:16:45.203Z,13.80
2019-05-07T14:19:13.841Z,13.75
2019-05-07T14:21:42.410Z,13.85
2019-05-07T14:24:12.297Z,13.87
2019-05-07T14:26:42.211Z,14.25
2019-05-07T14:29:10.791Z,13.52
2019-05-07T14:31:39.217Z,13.15
2019-05-07T14:34:24.265Z,13.11
2019-05-07T14:37:04.702Z,13.28
2019-05-07T14:39:33.358Z,13.46
2019-05-07T14:42:03.429Z,13.37
2019-05-07T14:44:52.631Z,13.42
2019-05-07T14:47:22.285Z,13.39
2019-05-07T14:49:52.895Z,13.78
2019-05-07T14:52:30.179Z,13.26
2019-05-07T14:54:51.423Z,13.13
2019-05-07T14:57:21.972Z,13.44
2019-05-07T14:59:52.233Z,13.01
2019-05-07T15:02:20.338Z,13.20
2019-05-07T15:04:48.770Z,13.05
2019-05-07T15:07:17.252Z,13.12
2019-05-07T15:09:45.950Z,13.36
2019-05-07T15:12:14.934Z,13.06
2019-05-07T15:14:43.910Z,13.42
2019-05-07T15:17:14.041Z,13.59
2019-05-07T15:19:42.851Z,13.57
2019-05-07T15:22:42.900Z,13.65
2019-05-07T15:24:59.416Z,13.71
2019-05-07T15:27:27.895Z,13.25
2019-05-07T15:29:56.352Z,13.33
2019-05-07T15:32:24.754Z,13.10
2019-05-07T15:34:53.371Z,13.17
2019-05-07T15:37:21.820Z,12.92
2019-05-07T15:39:50.311Z,12.52
2019-05-07T15:42:18.826Z,12.68
2019-05-07T15:44:47.287Z,12.39
2019-05-07T15:47:22.161Z,12.26
2019-05-07T15:49:50.188Z,12.11
2019-05-07T15:52:35.534Z,11.95
2019-05-07T15:55:06.120Z,11.92
2019-05-07T15:57:34.578Z,12.02
2019-05-07T16:00:05.258Z,11.87
2019-05-07T16:02:35.330Z,11.99
2019-05-07T16:05:05.173Z,11.87
2019-05-07T16:07:33.584Z,11.83
2019-05-07T16:10:02.084Z,12.12
2019-05-07T16:12:31.954Z,12.26
2019-05-07T16:15:03.001Z,12.33
2019-05-07T16:17:32.830Z,12.21
2019-05-07T16:20:03.222Z,12.03
2019-05-07T16:22:35.686Z,12.08
2019-05-07T16:25:07.244Z,12.05
2019-05-07T16:27:36.739Z,12.06
2019-05-07T16:30:06.951Z,12.15
2019-05-07T16:32:35.443Z,12.13
2019-05-07T16:35:05.629Z,12.26
2019-05-07T16:37:34.186Z,12.51
2019-05-07T16:40:04.549Z,12.58
2019-05-07T16:42:33.119Z,12.56
2019-05-07T16:45:02.928Z,12.17
2019-05-07T16:47:31.465Z,12.21
2019-05-07T16:50:04.031Z,12.07
2019-05-07T16:52:34.792Z,11.96
2019-05-07T16:55:02.825Z,11.90
2019-05-07T16:57:34.936Z,12.06
2019-05-07T17:00:05.472Z,11.96
2019-05-07T17:02:38.454Z,11.99
2019-05-07T17:05:12.421Z,12.12
2019-05-07T17:07:52.117Z,12.00
2019-05-07T17:10:22.380Z,12.19
2019-05-07T17:12:52.392Z,11.91
2019-05-07T17:15:22.839Z,11.93
2019-05-07T17:18:00.043Z,11.92
2019-05-07T17:20:29.020Z,11.76
2019-05-07T17:22:57.767Z,11.70
2019-05-07T17:25:38.334Z,11.74
2019-05-07T17:28:08.121Z,11.66
2019-05-07T17:30:37.785Z,11.81
2019-05-07T17:33:06.734Z,11.64
2019-05-07T17:35:35.188Z,11.68
2019-05-07T17:38:07.224Z,11.55
2019-05-07T17:40:34.465Z,11.52
2019-05-07T17:43:03.232Z,11.31
2019-05-07T17:45:32.781Z,11.43
2019-05-07T17:48:03.250Z,11.28
2019-05-07T17:50:36.556Z,11.30
2019-05-07T17:53:04.978Z,11.25
2019-05-07T17:55:33.421Z,11.16
2019-05-07T17:58:02.062Z,11.09
2019-05-07T18:00:32.720Z,11.18
2019-05-07T18:03:18.861Z,11.26
2019-05-07T18:05:47.279Z,11.18
2019-05-07T18:08:15.690Z,11.22
2019-05-07T18:10:44.117Z,11.03
2019-05-07T18:13:13.037Z,11.12
2019-05-07T18:15:42.744Z,11.10
2019-05-07T18:18:14.499Z,11.07
2019-05-07T18:20:42.924Z,10.95
2019-05-07T18:23:16.667Z,10.98
2019-05-07T18:25:42.864Z,10.93
2019-05-07T18:28:12.316Z,10.89
2019-05-07T18:30:40.824Z,10.80
2019-05-07T18:33:10.915Z,10.81
2019-05-07T18:35:39.333Z,10.72
2019-05-07T18:38:07.775Z,10.74
2019-05-07T18:40:36.198Z,10.67
2019-05-07T18:43:04.729Z,10.65
2019-05-07T18:45:33.156Z,10.60
2019-05-07T18:48:02.433Z,10.57
2019-05-07T18:50:32.527Z,10.47
2019-05-07T18:53:02.819Z,10.44
2019-05-07T18:55:33.076Z,10.41
2019-05-07T18:58:02.777Z,10.36
2019-05-07T19:00:39.161Z,10.34
2019-05-07T19:03:07.679Z,10.27
2019-05-07T19:05:36.136Z,10.15
2019-05-07T19:08:08.326Z,10.10
2019-05-07T19:10:34.752Z,9.98
2019-05-07T19:13:03.193Z,9.97
2019-05-07T19:15:32.914Z,9.83
2019-05-07T19:18:02.676Z,9.78
2019-05-07T19:20:32.612Z,9.73
2019-05-07T19:23:02.701Z,9.66
2019-05-07T19:25:32.691Z,9.60
2019-05-07T19:28:02.050Z,9.48
2019-05-07T19:30:32.628Z,9.39
2019-05-07T19:33:00.838Z,9.26
2019-05-07T19:35:29.286Z,9.11
2019-05-07T19:37:57.775Z,9.08
2019-05-07T19:40:26.205Z,9.18
2019-05-07T19:42:54.779Z,9.18
2019-05-07T19:45:24.455Z,9.08
2019-05-07T19:47:53.064Z,8.96
2019-05-07T19:50:23.310Z,8.91
2019-05-07T19:52:53.940Z,8.88
2019-05-07T19:55:22.350Z,8.72
2019-05-07T19:57:55.299Z,8.77
2019-05-07T20:00:25.396Z,8.90
2019-05-07T20:02:56.251Z,8.82
2019-05-07T20:05:23.928Z,8.86
2019-05-07T20:07:55.583Z,8.79
2019-05-07T20:10:24.110Z,8.80
2019-05-07T20:12:52.555Z,8.68
2019-05-07T20:15:22.408Z,8.65
2019-05-07T20:17:52.627Z,8.51
2019-05-07T20:20:22.176Z,8.49
2019-05-07T20:22:51.831Z,8.15
2019-05-07T20:25:22.434Z,8.29
2019-05-07T20:27:52.592Z,8.32
2019-05-07T20:30:22.750Z,8.35
2019-05-07T20:32:52.294Z,8.21
2019-05-07T20:35:20.981Z,8.27
2019-05-07T20:37:49.425Z,8.25
2019-05-07T20:40:17.867Z,8.17
2019-05-07T20:42:46.296Z,8.25
2019-05-07T20:45:14.820Z,8.17
2019-05-07T20:47:43.240Z,8.16
2019-05-07T20:50:12.736Z,8.22
2019-05-07T20:52:41.909Z,8.09
2019-05-07T20:55:30.632Z,8.01
2019-05-07T20:57:54.227Z,7.90
2019-05-07T21:00:24.334Z,7.87
2019-05-07T21:03:12.491Z,7.89
2019-05-07T21:05:42.185Z,7.87
2019-05-07T21:08:11.934Z,7.85
2019-05-07T21:10:42.543Z,7.82
2019-05-07T21:13:26.383Z,7.79
2019-05-07T21:15:41.870Z,7.82
2019-05-07T21:18:12.364Z,7.87
2019-05-07T21:20:42.047Z,7.84
2019-05-07T21:23:12.200Z,7.78
2019-05-07T21:25:43.458Z,7.74
2019-05-07T21:28:12.177Z,7.77
2019-05-07T21:30:42.691Z,7.75
2019-05-07T21:33:11.968Z,7.79
2019-05-07T21:35:42.739Z,7.81
2019-05-07T21:38:12.654Z,7.80
2019-05-07T21:40:42.931Z,7.72
2019-05-07T21:43:12.293Z,7.78
2019-05-07T21:45:42.290Z,7.81
2019-05-07T21:48:13.516Z,7.76
2019-05-07T21:50:41.078Z,7.73
2019-05-07T21:53:26.428Z,7.73
2019-05-07T21:56:12.626Z,7.71
2019-05-07T21:59:02.866Z,7.64
2019-05-07T22:01:38.621Z,7.69
2019-05-07T22:04:07.109Z,7.68
2019-05-07T22:06:35.542Z,7.72
2019-05-07T22:09:07.440Z,7.65
2019-05-07T22:11:36.007Z,7.60
2019-05-07T22:14:06.039Z,7.60
2019-05-07T22:16:34.476Z,7.57
2019-05-07T22:19:02.965Z,7.45
2019-05-07T22:21:33.889Z,7.45
2019-05-07T22:24:02.811Z,7.40
2019-05-07T22:26:32.194Z,7.38
2019-05-07T22:29:02.906Z,7.34
2019-05-07T22:31:32.614Z,7.30
2019-05-07T22:34:18.747Z,7.35
2019-05-07T22:36:47.168Z,7.23
2019-05-07T22:39:15.592Z,7.25
2019-05-07T22:41:44.018Z,7.29
2019-05-07T22:44:12.455Z,7.27
2019-05-07T22:46:42.171Z,7.27
2019-05-07T22:49:12.233Z,7.23
2019-05-07T22:51:40.803Z,7.14
2019-05-07T22:54:09.234Z,7.10
2019-05-07T22:56:57.330Z,7.10
2019-05-07T22:59:25.756Z,7.09
2019-05-07T23:01:54.950Z,7.06
2019-05-07T23:04:23.594Z,6.99
2019-05-07T23:06:52.747Z,6.93
2019-05-07T23:09:22.318Z,6.89
2019-05-07T23:11:52.657Z,6.86
2019-05-07T23:14:22.675Z,6.80
2019-05-07T23:16:55.003Z,6.79
2019-05-07T23:19:22.130Z,6.78
2019-05-07T23:21:52.157Z,6.76
2019-05-07T23:24:24.463Z,6.80
2019-05-07T23:26:53.302Z,6.69
2019-05-07T23:29:22.531Z,6.77
2019-05-07T23:31:52.839Z,6.70
2019-05-07T23:34:22.129Z,6.75
2019-05-07T23:36:53.067Z,6.79
2019-05-07T23:39:22.552Z,6.81
2019-05-07T23:41:58.304Z,6.72
2019-05-07T23:44:26.736Z,6.75
2019-05-07T23:46:55.170Z,6.70
2019-05-07T23:49:23.600Z,6.75
2019-05-07T23:51:53.017Z,6.66
2019-05-07T23:54:22.986Z,6.65
2019-05-07T23:57:04.927Z,6.54
2019-05-07T23:59:22.350Z,6.50
